sensor_id;sensor_type;location;lat;lon;timestamp;temperature;humidity
14471;DHT22;7321;50.802;4.336;2023-12-28T00:02:03;11.00;99.90
14471;DHT22;7321;50.802;4.336;2023-12-28T00:04:35;11.00;99.90
14471;DHT22;7321;50.802;4.336;2023-12-28T00:07:02;11.00;99.90
14471;DHT22;7321;50.802;4.336;2023-12-28T00:09:31;11.20;99.90
14471;DHT22;7321;50.802;4.336;2023-12-28T00:11:58;11.20;99.90
14471;DHT22;7321;50.802;4.336;2023-12-28T00:14:24;11.20;99.90
14471;DHT22;7321;50.802;4.336;2023-12-28T00:16:50;11.20;99.90
14471;DHT22;7321;50.802;4.336;2023-12-28T00:19:18;11.30;99.90
14471;DHT22;7321;50.802;4.336;2023-12-28T00:21:46;11.20;99.90
14471;DHT22;7321;50.802;4.336;2023-12-28T00:24:12;11.20;99.90
14471;DHT22;7321;50.802;4.336;2023-12-28T00:26:38;11.20;99.90
14471;DHT22;7321;50.802;4.336;2023-12-28T00:29:04;11.20;99.90
14471;DHT22;7321;50.802;4.336;2023-12-28T00:31:30;11.30;99.90
14471;DHT22;7321;50.802;4.336;2023-12-28T00:33:56;11.30;99.90
14471;DHT22;7321;50.802;4.336;2023-12-28T00:36:28;11.30;99.90
14471;DHT22;7321;50.802;4.336;2023-12-28T00:38:54;11.30;99.90
14471;DHT22;7321;50.802;4.336;2023-12-28T00:41:22;11.50;99.90
14471;DHT22;7321;50.802;4.336;2023-12-28T00:43:48;11.50;99.90
14471;DHT22;7321;50.802;4.336;2023-12-28T00:46:20;11.40;99.90
14471;DHT22;7321;50.802;4.336;2023-12-28T00:48:46;11.30;99.90
14471;DHT22;7321;50.802;4.336;2023-12-28T00:51:12;11.20;99.90
14471;DHT22;7321;50.802;4.336;2023-12-28T00:53:39;11.20;99.90
14471;DHT22;7321;50.802;4.336;2023-12-28T00:56:05;11.20;99.90
14471;DHT22;7321;50.802;4.336;2023-12-28T00:58:31;11.20;99.90
14471;DHT22;7321;50.802;4.336;2023-12-28T01:00:57;11.30;99.90
14471;DHT22;7321;50.802;4.336;2023-12-28T01:03:23;11.20;99.90
14471;DHT22;7321;50.802;4.336;2023-12-28T01:05:52;11.20;99.90
14471;DHT22;7321;50.802;4.336;2023-12-28T01:08:18;11.10;99.90
14471;DHT22;7321;50.802;4.336;2023-12-28T01:10:44;11.00;99.90
14471;DHT22;7321;50.802;4.336;2023-12-28T01:13:10;11.10;99.90
14471;DHT22;7321;50.802;4.336;2023-12-28T01:15:36;11.00;99.90
14471;DHT22;7321;50.802;4.336;2023-12-28T01:18:02;11.00;99.90
14471;DHT22;7321;50.802;4.336;2023-12-28T01:20:28;11.10;99.90
14471;DHT22;7321;50.802;4.336;2023-12-28T01:22:54;11.10;99.90
14471;DHT22;7321;50.802;4.336;2023-12-28T01:25:19;11.10;99.90
14471;DHT22;7321;50.802;4.336;2023-12-28T01:27:46;11.10;99.90
14471;DHT22;7321;50.802;4.336;2023-12-28T01:30:12;11.10;99.90
14471;DHT22;7321;50.802;4.336;2023-12-28T01:32:42;11.00;99.90
14471;DHT22;7321;50.802;4.336;2023-12-28T01:35:08;11.00;99.90
14471;DHT22;7321;50.802;4.336;2023-12-28T01:37:34;11.10;99.90
14471;DHT22;7321;50.802;4.336;2023-12-28T01:40:00;11.10;99.90
14471;DHT22;7321;50.802;4.336;2023-12-28T01:42:38;11.20;99.90
14471;DHT22;7321;50.802;4.336;2023-12-28T01:45:05;11.20;99.90
14471;DHT22;7321;50.802;4.336;2023-12-28T01:47:31;11.20;99.90
14471;DHT22;7321;50.802;4.336;2023-12-28T01:49:57;11.10;99.90
14471;DHT22;7321;50.802;4.336;2023-12-28T01:52:24;11.00;99.90
14471;DHT22;7321;50.802;4.336;2023-12-28T01:54:53;11.00;99.90
14471;DHT22;7321;50.802;4.336;2023-12-28T01:57:20;11.00;99.90
14471;DHT22;7321;50.802;4.336;2023-12-28T01:59:46;11.00;99.90
14471;DHT22;7321;50.802;4.336;2023-12-28T02:02:15;11.00;99.90
14471;DHT22;7321;50.802;4.336;2023-12-28T02:04:42;11.00;99.90
14471;DHT22;7321;50.802;4.336;2023-12-28T02:07:11;11.00;99.90
14471;DHT22;7321;50.802;4.336;2023-12-28T02:09:38;11.10;99.90
14471;DHT22;7321;50.802;4.336;2023-12-28T02:12:05;11.10;99.90
14471;DHT22;7321;50.802;4.336;2023-12-28T02:14:31;11.00;99.90
14471;DHT22;7321;50.802;4.336;2023-12-28T02:17:04;11.10;99.90
14471;DHT22;7321;50.802;4.336;2023-12-28T02:19:52;11.10;99.90
14471;DHT22;7321;50.802;4.336;2023-12-28T02:22:19;11.20;99.90
14471;DHT22;7321;50.802;4.336;2023-12-28T02:25:09;11.20;99.90
14471;DHT22;7321;50.802;4.336;2023-12-28T02:27:42;11.20;99.90
14471;DHT22;7321;50.802;4.336;2023-12-28T02:30:12;11.20;99.90
14471;DHT22;7321;50.802;4.336;2023-12-28T02:35:29;11.20;99.90
14471;DHT22;7321;50.802;4.336;2023-12-28T02:37:58;11.30;99.90
14471;DHT22;7321;50.802;4.336;2023-12-28T02:40:25;11.20;99.90
14471;DHT22;7321;50.802;4.336;2023-12-28T02:42:52;11.30;99.90
14471;DHT22;7321;50.802;4.336;2023-12-28T02:45:21;11.30;99.90
14471;DHT22;7321;50.802;4.336;2023-12-28T02:47:47;11.30;99.90
14471;DHT22;7321;50.802;4.336;2023-12-28T02:50:13;11.30;99.90
14471;DHT22;7321;50.802;4.336;2023-12-28T02:52:39;11.30;99.90
14471;DHT22;7321;50.802;4.336;2023-12-28T02:55:05;11.30;99.90
14471;DHT22;7321;50.802;4.336;2023-12-28T02:57:31;11.30;99.90
14471;DHT22;7321;50.802;4.336;2023-12-28T02:59:57;11.30;99.90
14471;DHT22;7321;50.802;4.336;2023-12-28T03:02:31;11.30;99.90
14471;DHT22;7321;50.802;4.336;2023-12-28T03:04:57;11.20;99.90
14471;DHT22;7321;50.802;4.336;2023-12-28T03:07:23;11.20;99.90
14471;DHT22;7321;50.802;4.336;2023-12-28T03:09:48;11.20;99.90
14471;DHT22;7321;50.802;4.336;2023-12-28T03:12:14;11.20;99.90
14471;DHT22;7321;50.802;4.336;2023-12-28T03:14:41;11.20;99.90
14471;DHT22;7321;50.802;4.336;2023-12-28T03:17:07;11.20;99.90
14471;DHT22;7321;50.802;4.336;2023-12-28T03:19:36;11.20;99.90
14471;DHT22;7321;50.802;4.336;2023-12-28T03:22:05;11.20;99.90
14471;DHT22;7321;50.802;4.336;2023-12-28T03:24:31;11.30;99.90
14471;DHT22;7321;50.802;4.336;2023-12-28T03:26:58;11.30;99.90
14471;DHT22;7321;50.802;4.336;2023-12-28T03:29:24;11.30;99.90
14471;DHT22;7321;50.802;4.336;2023-12-28T03:31:50;11.20;99.90
14471;DHT22;7321;50.802;4.336;2023-12-28T03:34:17;11.30;99.90
14471;DHT22;7321;50.802;4.336;2023-12-28T03:36:43;11.30;99.90
14471;DHT22;7321;50.802;4.336;2023-12-28T03:39:09;11.30;99.90
14471;DHT22;7321;50.802;4.336;2023-12-28T03:41:34;11.30;99.90
14471;DHT22;7321;50.802;4.336;2023-12-28T03:44:00;11.40;99.90
14471;DHT22;7321;50.802;4.336;2023-12-28T03:46:26;11.30;99.90
14471;DHT22;7321;50.802;4.336;2023-12-28T03:48:53;11.40;99.90
14471;DHT22;7321;50.802;4.336;2023-12-28T03:51:19;11.30;99.90
14471;DHT22;7321;50.802;4.336;2023-12-28T03:53:45;11.40;99.90
14471;DHT22;7321;50.802;4.336;2023-12-28T03:56:27;11.40;99.90
14471;DHT22;7321;50.802;4.336;2023-12-28T03:58:53;11.40;99.90
14471;DHT22;7321;50.802;4.336;2023-12-28T04:01:21;11.40;99.90
14471;DHT22;7321;50.802;4.336;2023-12-28T04:03:49;11.50;99.90
14471;DHT22;7321;50.802;4.336;2023-12-28T04:06:15;11.50;99.90
14471;DHT22;7321;50.802;4.336;2023-12-28T04:08:42;11.40;99.90
14471;DHT22;7321;50.802;4.336;2023-12-28T04:11:09;11.50;99.90
14471;DHT22;7321;50.802;4.336;2023-12-28T04:13:39;11.60;99.90
14471;DHT22;7321;50.802;4.336;2023-12-28T04:16:08;11.60;99.90
14471;DHT22;7321;50.802;4.336;2023-12-28T04:18:37;11.60;99.90
14471;DHT22;7321;50.802;4.336;2023-12-28T04:21:03;11.60;99.90
14471;DHT22;7321;50.802;4.336;2023-12-28T04:23:29;11.50;99.90
14471;DHT22;7321;50.802;4.336;2023-12-28T04:25:55;11.40;99.90
14471;DHT22;7321;50.802;4.336;2023-12-28T04:28:21;11.30;99.90
14471;DHT22;7321;50.802;4.336;2023-12-28T04:30:47;11.20;99.90
14471;DHT22;7321;50.802;4.336;2023-12-28T04:33:13;11.20;99.90
14471;DHT22;7321;50.802;4.336;2023-12-28T04:35:42;11.20;99.90
14471;DHT22;7321;50.802;4.336;2023-12-28T04:38:09;11.20;99.90
14471;DHT22;7321;50.802;4.336;2023-12-28T04:40:34;11.30;99.90
14471;DHT22;7321;50.802;4.336;2023-12-28T04:43:00;11.20;99.90
14471;DHT22;7321;50.802;4.336;2023-12-28T04:45:26;11.20;99.90
14471;DHT22;7321;50.802;4.336;2023-12-28T04:47:53;11.10;99.90
14471;DHT22;7321;50.802;4.336;2023-12-28T04:50:19;11.10;99.90
14471;DHT22;7321;50.802;4.336;2023-12-28T04:52:47;11.10;99.90
14471;DHT22;7321;50.802;4.336;2023-12-28T04:55:14;11.10;99.90
14471;DHT22;7321;50.802;4.336;2023-12-28T04:57:41;11.20;99.90
14471;DHT22;7321;50.802;4.336;2023-12-28T05:00:08;11.20;99.90
14471;DHT22;7321;50.802;4.336;2023-12-28T05:02:34;11.20;99.90
14471;DHT22;7321;50.802;4.336;2023-12-28T05:05:00;11.20;99.90
14471;DHT22;7321;50.802;4.336;2023-12-28T05:07:29;11.20;99.90
14471;DHT22;7321;50.802;4.336;2023-12-28T05:09:55;11.00;99.90
14471;DHT22;7321;50.802;4.336;2023-12-28T05:12:20;10.90;99.90
14471;DHT22;7321;50.802;4.336;2023-12-28T05:14:46;10.90;99.90
14471;DHT22;7321;50.802;4.336;2023-12-28T05:17:12;10.80;99.90
14471;DHT22;7321;50.802;4.336;2023-12-28T05:19:41;10.80;99.90
14471;DHT22;7321;50.802;4.336;2023-12-28T05:22:06;10.90;99.90
14471;DHT22;7321;50.802;4.336;2023-12-28T05:24:36;10.80;99.90
14471;DHT22;7321;50.802;4.336;2023-12-28T05:27:02;10.80;99.90
14471;DHT22;7321;50.802;4.336;2023-12-28T05:29:28;10.90;99.90
14471;DHT22;7321;50.802;4.336;2023-12-28T05:31:54;10.90;99.90
14471;DHT22;7321;50.802;4.336;2023-12-28T05:34:20;10.80;99.90
14471;DHT22;7321;50.802;4.336;2023-12-28T05:36:46;10.80;99.90
14471;DHT22;7321;50.802;4.336;2023-12-28T05:39:12;10.90;99.90
14471;DHT22;7321;50.802;4.336;2023-12-28T05:41:40;10.90;99.90
14471;DHT22;7321;50.802;4.336;2023-12-28T05:44:06;10.80;99.90
14471;DHT22;7321;50.802;4.336;2023-12-28T05:46:32;10.90;99.90
14471;DHT22;7321;50.802;4.336;2023-12-28T05:48:58;10.90;99.90
14471;DHT22;7321;50.802;4.336;2023-12-28T05:51:24;10.90;99.90
14471;DHT22;7321;50.802;4.336;2023-12-28T05:53:50;11.00;99.90
14471;DHT22;7321;50.802;4.336;2023-12-28T05:56:16;10.90;99.90
14471;DHT22;7321;50.802;4.336;2023-12-28T05:58:42;11.00;99.90
14471;DHT22;7321;50.802;4.336;2023-12-28T06:01:08;11.00;99.90
14471;DHT22;7321;50.802;4.336;2023-12-28T06:03:34;11.10;99.90
14471;DHT22;7321;50.802;4.336;2023-12-28T06:06:00;11.10;99.90
14471;DHT22;7321;50.802;4.336;2023-12-28T06:08:26;11.00;99.90
14471;DHT22;7321;50.802;4.336;2023-12-28T06:10:57;11.00;99.90
14471;DHT22;7321;50.802;4.336;2023-12-28T06:13:23;11.20;99.90
14471;DHT22;7321;50.802;4.336;2023-12-28T06:15:49;11.10;99.90
14471;DHT22;7321;50.802;4.336;2023-12-28T06:18:15;11.10;99.90
14471;DHT22;7321;50.802;4.336;2023-12-28T06:20:43;11.00;99.90
14471;DHT22;7321;50.802;4.336;2023-12-28T06:23:09;11.10;99.90
14471;DHT22;7321;50.802;4.336;2023-12-28T06:25:34;11.00;99.90
14471;DHT22;7321;50.802;4.336;2023-12-28T06:28:00;10.90;99.90
14471;DHT22;7321;50.802;4.336;2023-12-28T06:30:26;10.90;99.90
14471;DHT22;7321;50.802;4.336;2023-12-28T06:32:52;11.00;99.90
14471;DHT22;7321;50.802;4.336;2023-12-28T06:35:19;10.90;99.90
14471;DHT22;7321;50.802;4.336;2023-12-28T06:37:45;10.80;99.90
14471;DHT22;7321;50.802;4.336;2023-12-28T06:40:12;10.80;99.90
14471;DHT22;7321;50.802;4.336;2023-12-28T06:42:37;10.90;99.90
14471;DHT22;7321;50.802;4.336;2023-12-28T06:45:04;10.90;99.90
14471;DHT22;7321;50.802;4.336;2023-12-28T06:47:30;10.90;99.90
14471;DHT22;7321;50.802;4.336;2023-12-28T06:49:56;10.90;99.90
14471;DHT22;7321;50.802;4.336;2023-12-28T06:52:21;10.80;99.90
14471;DHT22;7321;50.802;4.336;2023-12-28T06:54:51;10.80;99.90
14471;DHT22;7321;50.802;4.336;2023-12-28T06:57:17;10.80;99.90
14471;DHT22;7321;50.802;4.336;2023-12-28T06:59:42;10.80;99.90
14471;DHT22;7321;50.802;4.336;2023-12-28T07:02:08;10.60;99.90
14471;DHT22;7321;50.802;4.336;2023-12-28T07:04:34;10.60;99.90
14471;DHT22;7321;50.802;4.336;2023-12-28T07:07:00;10.60;99.90
14471;DHT22;7321;50.802;4.336;2023-12-28T07:09:26;10.60;99.90
14471;DHT22;7321;50.802;4.336;2023-12-28T07:11:52;10.60;99.90
14471;DHT22;7321;50.802;4.336;2023-12-28T07:14:17;10.60;99.90
14471;DHT22;7321;50.802;4.336;2023-12-28T07:16:44;10.60;99.90
14471;DHT22;7321;50.802;4.336;2023-12-28T07:19:13;10.60;99.90
14471;DHT22;7321;50.802;4.336;2023-12-28T07:21:42;10.60;99.90
14471;DHT22;7321;50.802;4.336;2023-12-28T07:24:11;10.60;99.90
14471;DHT22;7321;50.802;4.336;2023-12-28T07:26:37;10.70;99.90
14471;DHT22;7321;50.802;4.336;2023-12-28T07:29:03;10.70;99.90
14471;DHT22;7321;50.802;4.336;2023-12-28T07:31:29;10.70;99.90
14471;DHT22;7321;50.802;4.336;2023-12-28T07:33:59;10.60;99.90
14471;DHT22;7321;50.802;4.336;2023-12-28T07:36:25;10.60;99.90
14471;DHT22;7321;50.802;4.336;2023-12-28T07:38:54;10.60;99.90
14471;DHT22;7321;50.802;4.336;2023-12-28T07:41:20;10.70;99.90
14471;DHT22;7321;50.802;4.336;2023-12-28T07:43:46;10.70;99.90
14471;DHT22;7321;50.802;4.336;2023-12-28T07:46:12;10.70;99.90
14471;DHT22;7321;50.802;4.336;2023-12-28T07:48:38;10.70;99.90
14471;DHT22;7321;50.802;4.336;2023-12-28T07:51:06;10.70;99.90
14471;DHT22;7321;50.802;4.336;2023-12-28T07:53:33;10.70;99.90
14471;DHT22;7321;50.802;4.336;2023-12-28T07:56:09;10.60;99.90
14471;DHT22;7321;50.802;4.336;2023-12-28T07:58:40;10.70;99.90
14471;DHT22;7321;50.802;4.336;2023-12-28T08:01:12;10.70;99.90
14471;DHT22;7321;50.802;4.336;2023-12-28T08:03:38;10.80;99.90
14471;DHT22;7321;50.802;4.336;2023-12-28T08:06:04;10.70;99.90
14471;DHT22;7321;50.802;4.336;2023-12-28T08:08:40;10.80;99.90
14471;DHT22;7321;50.802;4.336;2023-12-28T08:11:06;10.80;99.90
14471;DHT22;7321;50.802;4.336;2023-12-28T08:13:31;10.90;99.90
14471;DHT22;7321;50.802;4.336;2023-12-28T08:16:01;10.80;99.90
14471;DHT22;7321;50.802;4.336;2023-12-28T08:18:35;10.80;99.90
14471;DHT22;7321;50.802;4.336;2023-12-28T08:21:01;10.80;99.90
14471;DHT22;7321;50.802;4.336;2023-12-28T08:23:26;10.80;99.90
14471;DHT22;7321;50.802;4.336;2023-12-28T08:25:55;10.80;99.90
14471;DHT22;7321;50.802;4.336;2023-12-28T08:28:21;11.00;99.90
14471;DHT22;7321;50.802;4.336;2023-12-28T08:30:49;10.90;99.90
14471;DHT22;7321;50.802;4.336;2023-12-28T08:33:15;11.00;99.90
14471;DHT22;7321;50.802;4.336;2023-12-28T08:35:41;11.00;99.90
14471;DHT22;7321;50.802;4.336;2023-12-28T08:38:12;11.00;99.90
14471;DHT22;7321;50.802;4.336;2023-12-28T08:40:38;11.10;99.90
14471;DHT22;7321;50.802;4.336;2023-12-28T08:43:04;11.20;99.90
14471;DHT22;7321;50.802;4.336;2023-12-28T08:45:30;11.10;99.90
14471;DHT22;7321;50.802;4.336;2023-12-28T08:47:56;11.30;99.90
14471;DHT22;7321;50.802;4.336;2023-12-28T08:50:22;11.20;99.90
14471;DHT22;7321;50.802;4.336;2023-12-28T08:52:51;11.30;99.90
14471;DHT22;7321;50.802;4.336;2023-12-28T08:55:17;11.30;99.90
14471;DHT22;7321;50.802;4.336;2023-12-28T08:57:44;11.20;99.90
14471;DHT22;7321;50.802;4.336;2023-12-28T09:03:06;11.20;99.90
14471;DHT22;7321;50.802;4.336;2023-12-28T09:05:34;11.20;99.90
14471;DHT22;7321;50.802;4.336;2023-12-28T09:08:00;11.20;99.90
14471;DHT22;7321;50.802;4.336;2023-12-28T09:10:27;11.20;99.90
14471;DHT22;7321;50.802;4.336;2023-12-28T09:12:56;11.30;99.90
14471;DHT22;7321;50.802;4.336;2023-12-28T09:15:21;11.30;99.90
14471;DHT22;7321;50.802;4.336;2023-12-28T09:17:47;11.30;99.90
14471;DHT22;7321;50.802;4.336;2023-12-28T09:20:13;11.40;99.90
14471;DHT22;7321;50.802;4.336;2023-12-28T09:22:39;11.30;99.90
14471;DHT22;7321;50.802;4.336;2023-12-28T09:25:08;11.30;99.90
14471;DHT22;7321;50.802;4.336;2023-12-28T09:27:34;11.30;99.90
14471;DHT22;7321;50.802;4.336;2023-12-28T09:30:00;11.30;99.90
14471;DHT22;7321;50.802;4.336;2023-12-28T09:32:27;11.30;99.90
14471;DHT22;7321;50.802;4.336;2023-12-28T09:34:53;11.30;99.90
14471;DHT22;7321;50.802;4.336;2023-12-28T09:37:19;11.30;99.90
14471;DHT22;7321;50.802;4.336;2023-12-28T09:39:45;11.30;99.90
14471;DHT22;7321;50.802;4.336;2023-12-28T09:42:17;11.30;99.90
14471;DHT22;7321;50.802;4.336;2023-12-28T09:44:45;11.40;99.90
14471;DHT22;7321;50.802;4.336;2023-12-28T09:47:13;11.40;99.90
14471;DHT22;7321;50.802;4.336;2023-12-28T09:49:40;11.40;99.90
14471;DHT22;7321;50.802;4.336;2023-12-28T09:52:10;11.50;99.90
14471;DHT22;7321;50.802;4.336;2023-12-28T09:54:39;11.70;99.90
14471;DHT22;7321;50.802;4.336;2023-12-28T09:57:05;11.70;99.90
14471;DHT22;7321;50.802;4.336;2023-12-28T09:59:32;11.70;99.90
14471;DHT22;7321;50.802;4.336;2023-12-28T10:02:00;11.70;99.90
14471;DHT22;7321;50.802;4.336;2023-12-28T10:04:28;11.60;99.90
14471;DHT22;7321;50.802;4.336;2023-12-28T10:06:55;11.60;99.90
14471;DHT22;7321;50.802;4.336;2023-12-28T10:09:21;11.70;99.90
14471;DHT22;7321;50.802;4.336;2023-12-28T10:11:47;11.70;99.90
14471;DHT22;7321;50.802;4.336;2023-12-28T10:14:14;11.70;99.90
14471;DHT22;7321;50.802;4.336;2023-12-28T10:16:41;11.70;99.90
14471;DHT22;7321;50.802;4.336;2023-12-28T10:19:08;11.80;99.90
14471;DHT22;7321;50.802;4.336;2023-12-28T10:21:34;11.80;99.90
14471;DHT22;7321;50.802;4.336;2023-12-28T10:24:02;11.80;99.90
14471;DHT22;7321;50.802;4.336;2023-12-28T10:26:28;11.70;99.90
14471;DHT22;7321;50.802;4.336;2023-12-28T10:29:00;11.70;99.90
14471;DHT22;7321;50.802;4.336;2023-12-28T10:31:28;11.70;99.90
14471;DHT22;7321;50.802;4.336;2023-12-28T10:33:58;11.70;99.90
14471;DHT22;7321;50.802;4.336;2023-12-28T10:36:26;11.70;99.90
14471;DHT22;7321;50.802;4.336;2023-12-28T10:38:53;11.90;99.90
14471;DHT22;7321;50.802;4.336;2023-12-28T10:41:20;12.00;99.90
14471;DHT22;7321;50.802;4.336;2023-12-28T10:44:02;12.00;99.90
14471;DHT22;7321;50.802;4.336;2023-12-28T10:46:31;12.10;99.90
14471;DHT22;7321;50.802;4.336;2023-12-28T10:49:16;12.00;99.90
14471;DHT22;7321;50.802;4.336;2023-12-28T10:52:01;12.10;99.90
14471;DHT22;7321;50.802;4.336;2023-12-28T10:54:47;12.00;99.90
14471;DHT22;7321;50.802;4.336;2023-12-28T10:57:44;12.00;99.90
14471;DHT22;7321;50.802;4.336;2023-12-28T11:00:16;12.10;99.90
14471;DHT22;7321;50.802;4.336;2023-12-28T11:02:48;12.20;99.90
14471;DHT22;7321;50.802;4.336;2023-12-28T11:05:22;12.20;99.90
14471;DHT22;7321;50.802;4.336;2023-12-28T11:07:50;12.20;99.90
14471;DHT22;7321;50.802;4.336;2023-12-28T11:10:20;12.30;99.90
14471;DHT22;7321;50.802;4.336;2023-12-28T11:12:51;12.30;99.90
14471;DHT22;7321;50.802;4.336;2023-12-28T11:15:17;12.30;99.90
14471;DHT22;7321;50.802;4.336;2023-12-28T11:17:44;12.20;99.90
14471;DHT22;7321;50.802;4.336;2023-12-28T11:20:10;12.30;99.90
14471;DHT22;7321;50.802;4.336;2023-12-28T11:22:37;12.30;99.90
14471;DHT22;7321;50.802;4.336;2023-12-28T11:25:04;12.40;99.90
14471;DHT22;7321;50.802;4.336;2023-12-28T11:27:34;12.40;99.90
14471;DHT22;7321;50.802;4.336;2023-12-28T11:30:01;12.40;99.90
14471;DHT22;7321;50.802;4.336;2023-12-28T11:32:28;12.50;99.90
14471;DHT22;7321;50.802;4.336;2023-12-28T11:34:58;12.70;99.90
14471;DHT22;7321;50.802;4.336;2023-12-28T11:37:26;12.60;99.90
14471;DHT22;7321;50.802;4.336;2023-12-28T11:39:53;12.70;99.90
14471;DHT22;7321;50.802;4.336;2023-12-28T11:42:21;12.50;99.90
14471;DHT22;7321;50.802;4.336;2023-12-28T11:44:54;12.40;99.90
14471;DHT22;7321;50.802;4.336;2023-12-28T11:47:24;12.40;99.90
14471;DHT22;7321;50.802;4.336;2023-12-28T11:49:51;12.50;99.90
14471;DHT22;7321;50.802;4.336;2023-12-28T11:52:28;12.50;99.90
14471;DHT22;7321;50.802;4.336;2023-12-28T11:54:55;12.70;99.90
14471;DHT22;7321;50.802;4.336;2023-12-28T11:57:22;12.70;99.90
14471;DHT22;7321;50.802;4.336;2023-12-28T11:59:53;12.70;99.90
14471;DHT22;7321;50.802;4.336;2023-12-28T12:02:20;12.50;99.90
14471;DHT22;7321;50.802;4.336;2023-12-28T12:04:46;12.60;99.90
14471;DHT22;7321;50.802;4.336;2023-12-28T12:07:12;12.60;99.90
14471;DHT22;7321;50.802;4.336;2023-12-28T12:09:38;12.40;99.90
14471;DHT22;7321;50.802;4.336;2023-12-28T12:12:04;12.40;99.90
14471;DHT22;7321;50.802;4.336;2023-12-28T12:14:30;12.50;99.90
14471;DHT22;7321;50.802;4.336;2023-12-28T12:17:01;12.40;99.90
14471;DHT22;7321;50.802;4.336;2023-12-28T12:19:27;12.50;99.90
14471;DHT22;7321;50.802;4.336;2023-12-28T12:21:54;12.50;99.90
14471;DHT22;7321;50.802;4.336;2023-12-28T12:24:21;12.40;99.90
14471;DHT22;7321;50.802;4.336;2023-12-28T12:26:49;12.40;99.90
14471;DHT22;7321;50.802;4.336;2023-12-28T12:29:16;12.30;99.90
14471;DHT22;7321;50.802;4.336;2023-12-28T12:31:46;12.30;99.90
14471;DHT22;7321;50.802;4.336;2023-12-28T12:34:16;12.40;99.90
14471;DHT22;7321;50.802;4.336;2023-12-28T12:36:45;12.30;99.90
14471;DHT22;7321;50.802;4.336;2023-12-28T12:39:11;12.40;99.90
14471;DHT22;7321;50.802;4.336;2023-12-28T12:41:37;12.40;99.90
14471;DHT22;7321;50.802;4.336;2023-12-28T12:44:04;12.30;99.90
14471;DHT22;7321;50.802;4.336;2023-12-28T12:46:30;12.40;99.90
14471;DHT22;7321;50.802;4.336;2023-12-28T12:49:00;12.30;99.90
14471;DHT22;7321;50.802;4.336;2023-12-28T12:51:32;12.40;99.90
14471;DHT22;7321;50.802;4.336;2023-12-28T12:53:59;12.40;99.90
14471;DHT22;7321;50.802;4.336;2023-12-28T12:56:30;12.40;99.90
14471;DHT22;7321;50.802;4.336;2023-12-28T12:59:00;12.40;99.90
14471;DHT22;7321;50.802;4.336;2023-12-28T13:01:26;12.30;99.90
14471;DHT22;7321;50.802;4.336;2023-12-28T13:03:52;12.30;99.90
14471;DHT22;7321;50.802;4.336;2023-12-28T13:06:18;12.30;99.90
14471;DHT22;7321;50.802;4.336;2023-12-28T13:08:48;12.40;99.90
14471;DHT22;7321;50.802;4.336;2023-12-28T13:11:17;12.40;99.90
14471;DHT22;7321;50.802;4.336;2023-12-28T13:13:43;12.40;99.90
14471;DHT22;7321;50.802;4.336;2023-12-28T13:16:09;12.30;99.90
14471;DHT22;7321;50.802;4.336;2023-12-28T13:18:35;12.30;99.90
14471;DHT22;7321;50.802;4.336;2023-12-28T13:21:01;12.30;99.90
14471;DHT22;7321;50.802;4.336;2023-12-28T13:23:28;12.30;99.90
14471;DHT22;7321;50.802;4.336;2023-12-28T13:25:54;12.40;99.90
14471;DHT22;7321;50.802;4.336;2023-12-28T13:28:23;12.40;99.90
14471;DHT22;7321;50.802;4.336;2023-12-28T13:30:49;12.50;99.90
14471;DHT22;7321;50.802;4.336;2023-12-28T13:33:23;12.50;99.90
14471;DHT22;7321;50.802;4.336;2023-12-28T13:35:50;12.50;99.90
14471;DHT22;7321;50.802;4.336;2023-12-28T13:38:26;12.50;99.90
14471;DHT22;7321;50.802;4.336;2023-12-28T13:40:53;12.50;99.90
14471;DHT22;7321;50.802;4.336;2023-12-28T13:43:18;12.40;99.90
14471;DHT22;7321;50.802;4.336;2023-12-28T13:45:44;12.40;99.90
14471;DHT22;7321;50.802;4.336;2023-12-28T13:48:10;12.40;99.90
14471;DHT22;7321;50.802;4.336;2023-12-28T13:50:41;12.40;99.90
14471;DHT22;7321;50.802;4.336;2023-12-28T13:53:06;12.40;99.90
14471;DHT22;7321;50.802;4.336;2023-12-28T13:55:33;12.50;99.90
14471;DHT22;7321;50.802;4.336;2023-12-28T13:57:59;12.40;99.90
14471;DHT22;7321;50.802;4.336;2023-12-28T14:00:25;12.40;99.90
14471;DHT22;7321;50.802;4.336;2023-12-28T14:02:51;12.50;99.90
14471;DHT22;7321;50.802;4.336;2023-12-28T14:05:18;12.60;99.90
14471;DHT22;7321;50.802;4.336;2023-12-28T14:07:44;12.60;99.90
14471;DHT22;7321;50.802;4.336;2023-12-28T14:10:10;12.50;99.90
14471;DHT22;7321;50.802;4.336;2023-12-28T14:12:36;12.40;99.90
14471;DHT22;7321;50.802;4.336;2023-12-28T14:15:02;12.30;99.90
14471;DHT22;7321;50.802;4.336;2023-12-28T14:17:28;12.30;99.90
14471;DHT22;7321;50.802;4.336;2023-12-28T14:19:55;12.30;99.90
14471;DHT22;7321;50.802;4.336;2023-12-28T14:22:25;12.30;99.90
14471;DHT22;7321;50.802;4.336;2023-12-28T14:24:52;12.30;99.90
14471;DHT22;7321;50.802;4.336;2023-12-28T14:27:18;12.30;99.90
14471;DHT22;7321;50.802;4.336;2023-12-28T14:29:45;12.20;99.90
14471;DHT22;7321;50.802;4.336;2023-12-28T14:32:11;12.40;99.90
14471;DHT22;7321;50.802;4.336;2023-12-28T14:34:38;12.20;99.90
14471;DHT22;7321;50.802;4.336;2023-12-28T14:37:06;12.10;99.90
14471;DHT22;7321;50.802;4.336;2023-12-28T14:39:32;12.20;99.90
14471;DHT22;7321;50.802;4.336;2023-12-28T14:41:58;12.20;99.90
14471;DHT22;7321;50.802;4.336;2023-12-28T14:44:28;12.20;99.90
14471;DHT22;7321;50.802;4.336;2023-12-28T14:46:54;12.20;99.90
14471;DHT22;7321;50.802;4.336;2023-12-28T14:49:20;12.10;99.90
14471;DHT22;7321;50.802;4.336;2023-12-28T14:51:46;12.00;99.90
14471;DHT22;7321;50.802;4.336;2023-12-28T14:54:12;12.00;99.90
14471;DHT22;7321;50.802;4.336;2023-12-28T14:56:38;12.00;99.90
14471;DHT22;7321;50.802;4.336;2023-12-28T14:59:03;12.10;99.90
14471;DHT22;7321;50.802;4.336;2023-12-28T15:01:29;12.10;99.90
14471;DHT22;7321;50.802;4.336;2023-12-28T15:03:55;12.10;99.90
14471;DHT22;7321;50.802;4.336;2023-12-28T15:06:21;12.10;99.90
14471;DHT22;7321;50.802;4.336;2023-12-28T15:08:47;12.00;99.90
14471;DHT22;7321;50.802;4.336;2023-12-28T15:11:13;12.10;99.90
14471;DHT22;7321;50.802;4.336;2023-12-28T15:13:39;12.00;99.90
14471;DHT22;7321;50.802;4.336;2023-12-28T15:16:06;12.00;99.90
14471;DHT22;7321;50.802;4.336;2023-12-28T15:18:32;12.00;99.90
14471;DHT22;7321;50.802;4.336;2023-12-28T15:20:58;11.90;99.90
14471;DHT22;7321;50.802;4.336;2023-12-28T15:23:24;12.00;99.90
14471;DHT22;7321;50.802;4.336;2023-12-28T15:25:52;12.00;99.90
14471;DHT22;7321;50.802;4.336;2023-12-28T15:28:18;12.10;99.90
14471;DHT22;7321;50.802;4.336;2023-12-28T15:30:45;12.00;99.90
14471;DHT22;7321;50.802;4.336;2023-12-28T15:33:11;11.90;99.90
14471;DHT22;7321;50.802;4.336;2023-12-28T15:35:40;11.80;99.90
14471;DHT22;7321;50.802;4.336;2023-12-28T15:38:06;11.80;99.90
14471;DHT22;7321;50.802;4.336;2023-12-28T15:40:31;11.90;99.90
14471;DHT22;7321;50.802;4.336;2023-12-28T15:42:57;11.80;99.90
14471;DHT22;7321;50.802;4.336;2023-12-28T15:45:23;11.80;99.90
14471;DHT22;7321;50.802;4.336;2023-12-28T15:47:49;11.80;99.90
14471;DHT22;7321;50.802;4.336;2023-12-28T15:50:16;11.70;99.90
14471;DHT22;7321;50.802;4.336;2023-12-28T15:52:41;11.70;99.90